sensor_id;sensor_type;location;lat;lon;timestamp;P1;durP1;ratioP1;P2;durP2;ratioP2
7527;SDS011;3805;49.006;8.514;2022-08-19T05:16:13;23.93;;;21.53;;
7527;SDS011;3805;49.006;8.514;2022-08-19T05:19:02;23.33;;;21.13;;
7527;SDS011;3805;49.006;8.514;2022-08-19T05:22:08;25.07;;;22.23;;
7527;SDS011;3805;49.006;8.514;2022-08-19T05:25:16;25.17;;;22.50;;
7527;SDS011;3805;49.006;8.514;2022-08-19T05:28:06;22.60;;;20.30;;
7527;SDS011;3805;49.006;8.514;2022-08-19T05:30:55;22.90;;;20.57;;
7527;SDS011;3805;49.006;8.514;2022-08-19T05:33:45;24.30;;;21.70;;
7527;SDS011;3805;49.006;8.514;2022-08-19T05:36:35;24.50;;;21.90;;
7527;SDS011;3805;49.006;8.514;2022-08-19T05:39:27;24.63;;;21.73;;
7527;SDS011;3805;49.006;8.514;2022-08-19T05:42:17;24.20;;;21.60;;
7527;SDS011;3805;49.006;8.514;2022-08-19T05:45:07;22.90;;;20.50;;
7527;SDS011;3805;49.006;8.514;2022-08-19T05:47:56;23.70;;;21.30;;
7527;SDS011;3805;49.006;8.514;2022-08-19T05:50:46;23.30;;;20.87;;
7527;SDS011;3805;49.006;8.514;2022-08-19T05:53:37;23.43;;;21.03;;
7527;SDS011;3805;49.006;8.514;2022-08-19T05:56:25;25.03;;;22.43;;
7527;SDS011;3805;49.006;8.514;2022-08-19T05:59:14;23.70;;;20.93;;
7527;SDS011;3805;49.006;8.514;2022-08-19T06:02:05;22.37;;;20.10;;
7527;SDS011;3805;49.006;8.514;2022-08-19T06:04:54;22.20;;;20.10;;
7527;SDS011;3805;49.006;8.514;2022-08-19T06:07:44;23.13;;;20.87;;
7527;SDS011;3805;49.006;8.514;2022-08-19T06:10:33;21.77;;;19.47;;
7527;SDS011;3805;49.006;8.514;2022-08-19T06:13:23;23.13;;;20.87;;
7527;SDS011;3805;49.006;8.514;2022-08-19T06:16:19;24.97;;;22.47;;
7527;SDS011;3805;49.006;8.514;2022-08-19T06:19:09;23.57;;;21.10;;
7527;SDS011;3805;49.006;8.514;2022-08-19T06:21:59;23.23;;;20.93;;
7527;SDS011;3805;49.006;8.514;2022-08-19T06:24:50;25.30;;;20.20;;
7527;SDS011;3805;49.006;8.514;2022-08-19T06:27:39;24.47;;;21.87;;
7527;SDS011;3805;49.006;8.514;2022-08-19T06:30:48;24.10;;;21.70;;
7527;SDS011;3805;49.006;8.514;2022-08-19T06:33:37;24.40;;;22.00;;
7527;SDS011;3805;49.006;8.514;2022-08-19T06:36:26;24.47;;;21.97;;
7527;SDS011;3805;49.006;8.514;2022-08-19T06:39:19;23.80;;;21.13;;
7527;SDS011;3805;49.006;8.514;2022-08-19T06:42:11;23.10;;;20.80;;
7527;SDS011;3805;49.006;8.514;2022-08-19T06:45:04;20.27;;;18.20;;
7527;SDS011;3805;49.006;8.514;2022-08-19T06:47:57;23.90;;;21.20;;
7527;SDS011;3805;49.006;8.514;2022-08-19T06:50:47;21.37;;;18.90;;
7527;SDS011;3805;49.006;8.514;2022-08-19T06:53:38;21.47;;;19.50;;
7527;SDS011;3805;49.006;8.514;2022-08-19T06:56:29;20.77;;;18.77;;
7527;SDS011;3805;49.006;8.514;2022-08-19T06:59:20;20.33;;;18.27;;
7527;SDS011;3805;49.006;8.514;2022-08-19T07:02:11;21.20;;;18.87;;
7527;SDS011;3805;49.006;8.514;2022-08-19T07:04:59;20.93;;;18.77;;
7527;SDS011;3805;49.006;8.514;2022-08-19T07:07:52;25.53;;;18.80;;
7527;SDS011;3805;49.006;8.514;2022-08-19T07:10:45;19.17;;;17.37;;
7527;SDS011;3805;49.006;8.514;2022-08-19T07:13:35;21.50;;;19.40;;
7527;SDS011;3805;49.006;8.514;2022-08-19T07:16:26;25.77;;;21.43;;
7527;SDS011;3805;49.006;8.514;2022-08-19T07:19:16;21.17;;;19.17;;
7527;SDS011;3805;49.006;8.514;2022-08-19T07:22:06;23.33;;;19.17;;
7527;SDS011;3805;49.006;8.514;2022-08-19T07:24:59;20.77;;;18.53;;
7527;SDS011;3805;49.006;8.514;2022-08-19T07:27:49;19.37;;;17.50;;
7527;SDS011;3805;49.006;8.514;2022-08-19T07:30:40;22.37;;;18.67;;
7527;SDS011;3805;49.006;8.514;2022-08-19T07:33:31;18.23;;;16.53;;
7527;SDS011;3805;49.006;8.514;2022-08-19T07:36:24;17.70;;;16.00;;
7527;SDS011;3805;49.006;8.514;2022-08-19T07:39:17;16.67;;;15.00;;
7527;SDS011;3805;49.006;8.514;2022-08-19T07:42:08;16.70;;;15.10;;
7527;SDS011;3805;49.006;8.514;2022-08-19T07:44:59;15.60;;;14.10;;
7527;SDS011;3805;49.006;8.514;2022-08-19T07:47:48;19.20;;;15.53;;
7527;SDS011;3805;49.006;8.514;2022-08-19T07:50:38;16.67;;;14.93;;
7527;SDS011;3805;49.006;8.514;2022-08-19T07:53:27;15.93;;;14.47;;
7527;SDS011;3805;49.006;8.514;2022-08-19T07:56:17;15.37;;;14.20;;
7527;SDS011;3805;49.006;8.514;2022-08-19T07:59:06;14.90;;;13.50;;
7527;SDS011;3805;49.006;8.514;2022-08-19T08:01:56;17.13;;;15.30;;
7527;SDS011;3805;49.006;8.514;2022-08-19T08:04:46;13.90;;;12.70;;
7527;SDS011;3805;49.006;8.514;2022-08-19T08:07:54;17.07;;;14.90;;
7527;SDS011;3805;49.006;8.514;2022-08-19T08:10:59;13.50;;;12.20;;
7527;SDS011;3805;49.006;8.514;2022-08-19T08:13:48;15.37;;;13.70;;
7527;SDS011;3805;49.006;8.514;2022-08-19T08:16:50;13.60;;;12.30;;
7527;SDS011;3805;49.006;8.514;2022-08-19T08:19:40;14.43;;;12.90;;
7527;SDS011;3805;49.006;8.514;2022-08-19T08:22:29;15.30;;;13.73;;
7527;SDS011;3805;49.006;8.514;2022-08-19T08:25:37;14.70;;;13.27;;
7527;SDS011;3805;49.006;8.514;2022-08-19T08:28:26;15.00;;;13.60;;
7527;SDS011;3805;49.006;8.514;2022-08-19T08:31:16;16.40;;;14.73;;
7527;SDS011;3805;49.006;8.514;2022-08-19T08:34:06;18.13;;;13.90;;
7527;SDS011;3805;49.006;8.514;2022-08-19T08:36:55;14.67;;;13.30;;
7527;SDS011;3805;49.006;8.514;2022-08-19T08:39:44;13.33;;;12.20;;
7527;SDS011;3805;49.006;8.514;2022-08-19T08:42:36;13.43;;;11.83;;
7527;SDS011;3805;49.006;8.514;2022-08-19T08:45:29;14.13;;;12.83;;
7527;SDS011;3805;49.006;8.514;2022-08-19T08:48:30;12.80;;;11.60;;
7527;SDS011;3805;49.006;8.514;2022-08-19T08:51:25;11.40;;;10.27;;
7527;SDS011;3805;49.006;8.514;2022-08-19T08:54:29;11.80;;;10.70;;
7527;SDS011;3805;49.006;8.514;2022-08-19T08:57:23;10.90;;;9.90;;
7527;SDS011;3805;49.006;8.514;2022-08-19T09:00:26;9.17;;;8.37;;
7527;SDS011;3805;49.006;8.514;2022-08-19T09:03:17;9.60;;;8.80;;
7527;SDS011;3805;49.006;8.514;2022-08-19T09:06:11;10.00;;;8.57;;
7527;SDS011;3805;49.006;8.514;2022-08-19T09:09:04;18.47;;;16.90;;
7527;SDS011;3805;49.006;8.514;2022-08-19T09:12:00;8.73;;;7.97;;
7527;SDS011;3805;49.006;8.514;2022-08-19T09:14:58;8.57;;;7.97;;
7527;SDS011;3805;49.006;8.514;2022-08-19T09:17:50;8.60;;;7.77;;
7527;SDS011;3805;49.006;8.514;2022-08-19T09:20:38;8.20;;;7.50;;
7527;SDS011;3805;49.006;8.514;2022-08-19T09:23:29;8.53;;;7.90;;
7527;SDS011;3805;49.006;8.514;2022-08-19T09:26:22;7.83;;;7.23;;
7527;SDS011;3805;49.006;8.514;2022-08-19T09:29:30;10.07;;;8.47;;
7527;SDS011;3805;49.006;8.514;2022-08-19T09:32:19;8.17;;;7.47;;
7527;SDS011;3805;49.006;8.514;2022-08-19T09:35:14;9.30;;;8.30;;
7527;SDS011;3805;49.006;8.514;2022-08-19T09:38:03;9.93;;;8.93;;
7527;SDS011;3805;49.006;8.514;2022-08-19T09:40:52;7.40;;;6.80;;
7527;SDS011;3805;49.006;8.514;2022-08-19T09:43:41;10.87;;;8.30;;
7527;SDS011;3805;49.006;8.514;2022-08-19T09:46:34;10.07;;;8.90;;
7527;SDS011;3805;49.006;8.514;2022-08-19T09:49:23;9.40;;;8.37;;
7527;SDS011;3805;49.006;8.514;2022-08-19T09:52:12;9.40;;;8.50;;
7527;SDS011;3805;49.006;8.514;2022-08-19T09:55:03;8.13;;;7.53;;
7527;SDS011;3805;49.006;8.514;2022-08-19T09:57:54;9.17;;;8.37;;
7527;SDS011;3805;49.006;8.514;2022-08-19T10:00:43;8.63;;;7.90;;
7527;SDS011;3805;49.006;8.514;2022-08-19T10:03:37;9.70;;;8.90;;
7527;SDS011;3805;49.006;8.514;2022-08-19T10:06:27;8.23;;;7.53;;
7527;SDS011;3805;49.006;8.514;2022-08-19T10:09:34;7.90;;;7.20;;
7527;SDS011;3805;49.006;8.514;2022-08-19T10:12:22;7.87;;;7.27;;
7527;SDS011;3805;49.006;8.514;2022-08-19T10:15:13;8.90;;;8.10;;
7527;SDS011;3805;49.006;8.514;2022-08-19T10:18:15;9.20;;;8.40;;
7527;SDS011;3805;49.006;8.514;2022-08-19T10:21:06;9.30;;;8.50;;
7527;SDS011;3805;49.006;8.514;2022-08-19T10:23:58;7.93;;;7.17;;
7527;SDS011;3805;49.006;8.514;2022-08-19T10:26:52;9.07;;;8.37;;
7527;SDS011;3805;49.006;8.514;2022-08-19T10:29:45;7.67;;;7.07;;
7527;SDS011;3805;49.006;8.514;2022-08-19T10:32:34;8.23;;;6.30;;
7527;SDS011;3805;49.006;8.514;2022-08-19T10:35:23;7.50;;;6.97;;
7527;SDS011;3805;49.006;8.514;2022-08-19T10:38:13;8.07;;;7.37;;
7527;SDS011;3805;49.006;8.514;2022-08-19T10:41:08;7.70;;;7.07;;
7527;SDS011;3805;49.006;8.514;2022-08-19T10:44:00;7.93;;;7.23;;
7527;SDS011;3805;49.006;8.514;2022-08-19T10:46:51;7.20;;;6.70;;
7527;SDS011;3805;49.006;8.514;2022-08-19T10:49:42;8.73;;;7.53;;
7527;SDS011;3805;49.006;8.514;2022-08-19T10:52:49;7.47;;;6.87;;
7527;SDS011;3805;49.006;8.514;2022-08-19T10:55:41;7.50;;;6.80;;
7527;SDS011;3805;49.006;8.514;2022-08-19T10:58:47;8.03;;;7.30;;
7527;SDS011;3805;49.006;8.514;2022-08-19T11:01:37;7.20;;;6.80;;
7527;SDS011;3805;49.006;8.514;2022-08-19T11:04:26;8.40;;;7.80;;
7527;SDS011;3805;49.006;8.514;2022-08-19T11:07:15;7.47;;;6.90;;
7527;SDS011;3805;49.006;8.514;2022-08-19T11:10:04;8.13;;;7.50;;
7527;SDS011;3805;49.006;8.514;2022-08-19T11:12:59;8.07;;;7.43;;
7527;SDS011;3805;49.006;8.514;2022-08-19T11:15:47;7.60;;;7.00;;
7527;SDS011;3805;49.006;8.514;2022-08-19T11:18:47;7.87;;;7.17;;
7527;SDS011;3805;49.006;8.514;2022-08-19T11:21:37;7.70;;;7.10;;
7527;SDS011;3805;49.006;8.514;2022-08-19T11:24:26;7.73;;;7.13;;
7527;SDS011;3805;49.006;8.514;2022-08-19T11:27:15;8.00;;;7.20;;
7527;SDS011;3805;49.006;8.514;2022-08-19T11:30:05;8.60;;;7.20;;
7527;SDS011;3805;49.006;8.514;2022-08-19T11:32:59;9.43;;;8.50;;
7527;SDS011;3805;49.006;8.514;2022-08-19T11:35:50;8.13;;;7.53;;
7527;SDS011;3805;49.006;8.514;2022-08-19T11:38:39;9.00;;;8.20;;
7527;SDS011;3805;49.006;8.514;2022-08-19T11:41:27;11.90;;;10.57;;
7527;SDS011;3805;49.006;8.514;2022-08-19T11:44:16;8.77;;;8.07;;
7527;SDS011;3805;49.006;8.514;2022-08-19T11:47:05;8.00;;;7.50;;
7527;SDS011;3805;49.006;8.514;2022-08-19T11:49:55;7.57;;;6.87;;
7527;SDS011;3805;49.006;8.514;2022-08-19T11:52:45;7.70;;;7.20;;
7527;SDS011;3805;49.006;8.514;2022-08-19T11:55:36;7.50;;;7.00;;
7527;SDS011;3805;49.006;8.514;2022-08-19T11:58:30;7.07;;;6.50;;
7527;SDS011;3805;49.006;8.514;2022-08-19T12:01:20;8.80;;;7.47;;
7527;SDS011;3805;49.006;8.514;2022-08-19T12:04:09;7.07;;;6.57;;
7527;SDS011;3805;49.006;8.514;2022-08-19T12:06:58;8.63;;;7.93;;
7527;SDS011;3805;49.006;8.514;2022-08-19T12:09:48;8.50;;;7.90;;
7527;SDS011;3805;49.006;8.514;2022-08-19T12:12:37;8.10;;;7.40;;
7527;SDS011;3805;49.006;8.514;2022-08-19T12:15:29;8.37;;;7.80;;
7527;SDS011;3805;49.006;8.514;2022-08-19T12:18:23;9.00;;;8.30;;
7527;SDS011;3805;49.006;8.514;2022-08-19T12:21:12;8.43;;;7.83;;
7527;SDS011;3805;49.006;8.514;2022-08-19T12:24:01;8.40;;;7.80;;
7527;SDS011;3805;49.006;8.514;2022-08-19T12:26:54;7.83;;;7.10;;
7527;SDS011;3805;49.006;8.514;2022-08-19T12:29:49;8.60;;;7.90;;
7527;SDS011;3805;49.006;8.514;2022-08-19T12:32:38;8.80;;;8.20;;
7527;SDS011;3805;49.006;8.514;2022-08-19T12:35:27;9.03;;;8.33;;
7527;SDS011;3805;49.006;8.514;2022-08-19T12:38:17;8.37;;;7.80;;
7527;SDS011;3805;49.006;8.514;2022-08-19T12:41:07;7.53;;;7.00;;
7527;SDS011;3805;49.006;8.514;2022-08-19T12:44:00;9.83;;;7.83;;
7527;SDS011;3805;49.006;8.514;2022-08-19T12:46:51;7.67;;;7.17;;
7527;SDS011;3805;49.006;8.514;2022-08-19T12:49:40;8.47;;;7.77;;
7527;SDS011;3805;49.006;8.514;2022-08-19T12:52:41;8.00;;;7.47;;
7527;SDS011;3805;49.006;8.514;2022-08-19T12:55:30;7.77;;;7.23;;
7527;SDS011;3805;49.006;8.514;2022-08-19T12:58:18;7.97;;;7.47;;
7527;SDS011;3805;49.006;8.514;2022-08-19T13:01:15;7.33;;;6.93;;
7527;SDS011;3805;49.006;8.514;2022-08-19T13:04:08;7.77;;;7.20;;
7527;SDS011;3805;49.006;8.514;2022-08-19T13:06:57;8.07;;;7.37;;
7527;SDS011;3805;49.006;8.514;2022-08-19T13:09:46;8.77;;;8.07;;
7527;SDS011;3805;49.006;8.514;2022-08-19T13:12:35;9.00;;;8.30;;
7527;SDS011;3805;49.006;8.514;2022-08-19T13:15:23;11.53;;;10.53;;
7527;SDS011;3805;49.006;8.514;2022-08-19T13:18:13;7.93;;;7.40;;
7527;SDS011;3805;49.006;8.514;2022-08-19T13:21:02;8.40;;;7.80;;
7527;SDS011;3805;49.006;8.514;2022-08-19T13:23:52;8.53;;;7.83;;
7527;SDS011;3805;49.006;8.514;2022-08-19T13:26:41;8.00;;;7.50;;
7527;SDS011;3805;49.006;8.514;2022-08-19T13:29:29;7.47;;;6.97;;
7527;SDS011;3805;49.006;8.514;2022-08-19T13:32:35;7.30;;;6.77;;
7527;SDS011;3805;49.006;8.514;2022-08-19T13:35:43;7.73;;;7.17;;
7527;SDS011;3805;49.006;8.514;2022-08-19T13:38:34;8.50;;;7.90;;
7527;SDS011;3805;49.006;8.514;2022-08-19T13:41:23;7.60;;;7.10;;
7527;SDS011;3805;49.006;8.514;2022-08-19T13:44:11;7.23;;;6.80;;
7527;SDS011;3805;49.006;8.514;2022-08-19T13:47:00;8.43;;;7.80;;
7527;SDS011;3805;49.006;8.514;2022-08-19T13:49:52;7.80;;;7.30;;
7527;SDS011;3805;49.006;8.514;2022-08-19T13:52:42;7.50;;;6.90;;
7527;SDS011;3805;49.006;8.514;2022-08-19T13:55:31;7.53;;;7.13;;
7527;SDS011;3805;49.006;8.514;2022-08-19T13:58:20;8.60;;;8.00;;
7527;SDS011;3805;49.006;8.514;2022-08-19T14:01:09;8.27;;;7.67;;
7527;SDS011;3805;49.006;8.514;2022-08-19T14:03:58;8.27;;;7.77;;
7527;SDS011;3805;49.006;8.514;2022-08-19T14:06:47;8.73;;;8.03;;
7527;SDS011;3805;49.006;8.514;2022-08-19T14:09:37;7.97;;;7.47;;
7527;SDS011;3805;49.006;8.514;2022-08-19T14:12:26;7.00;;;6.50;;
7527;SDS011;3805;49.006;8.514;2022-08-19T14:15:15;6.57;;;6.17;;
7527;SDS011;3805;49.006;8.514;2022-08-19T14:18:04;7.70;;;7.20;;
7527;SDS011;3805;49.006;8.514;2022-08-19T14:20:52;7.23;;;6.73;;
7527;SDS011;3805;49.006;8.514;2022-08-19T14:23:42;7.30;;;6.80;;
7527;SDS011;3805;49.006;8.514;2022-08-19T14:26:33;7.80;;;7.23;;
7527;SDS011;3805;49.006;8.514;2022-08-19T14:29:22;7.10;;;6.60;;
7527;SDS011;3805;49.006;8.514;2022-08-19T14:32:10;7.10;;;6.60;;
7527;SDS011;3805;49.006;8.514;2022-08-19T14:35:03;7.07;;;6.67;;
7527;SDS011;3805;49.006;8.514;2022-08-19T14:37:54;5.53;;;5.13;;
7527;SDS011;3805;49.006;8.514;2022-08-19T14:40:44;5.47;;;5.07;;
7527;SDS011;3805;49.006;8.514;2022-08-19T14:43:34;6.40;;;6.00;;
7527;SDS011;3805;49.006;8.514;2022-08-19T14:46:24;6.03;;;5.60;;
7527;SDS011;3805;49.006;8.514;2022-08-19T14:49:15;5.30;;;4.90;;
7527;SDS011;3805;49.006;8.514;2022-08-19T14:52:05;5.10;;;4.80;;
7527;SDS011;3805;49.006;8.514;2022-08-19T14:54:54;5.37;;;4.87;;
7527;SDS011;3805;49.006;8.514;2022-08-19T14:57:44;4.37;;;4.17;;
7527;SDS011;3805;49.006;8.514;2022-08-19T15:00:34;4.70;;;4.23;;
7527;SDS011;3805;49.006;8.514;2022-08-19T15:03:23;4.83;;;4.53;;
7527;SDS011;3805;49.006;8.514;2022-08-19T15:06:12;4.83;;;4.50;;
7527;SDS011;3805;49.006;8.514;2022-08-19T15:09:00;5.93;;;5.53;;
7527;SDS011;3805;49.006;8.514;2022-08-19T15:11:50;4.90;;;4.60;;
7527;SDS011;3805;49.006;8.514;2022-08-19T15:14:39;5.20;;;4.80;;
7527;SDS011;3805;49.006;8.514;2022-08-19T15:17:30;8.57;;;7.83;;
7527;SDS011;3805;49.006;8.514;2022-08-19T15:20:38;5.30;;;5.00;;
7527;SDS011;3805;49.006;8.514;2022-08-19T15:23:28;5.07;;;4.73;;
7527;SDS011;3805;49.006;8.514;2022-08-19T15:26:17;5.03;;;4.60;;
7527;SDS011;3805;49.006;8.514;2022-08-19T15:29:06;5.07;;;4.77;;
7527;SDS011;3805;49.006;8.514;2022-08-19T15:31:55;4.83;;;4.63;;
7527;SDS011;3805;49.006;8.514;2022-08-19T15:34:46;4.73;;;4.43;;
7527;SDS011;3805;49.006;8.514;2022-08-19T15:37:35;4.30;;;4.00;;
7527;SDS011;3805;49.006;8.514;2022-08-19T15:40:25;4.90;;;4.60;;
7527;SDS011;3805;49.006;8.514;2022-08-19T15:43:14;7.07;;;6.57;;
7527;SDS011;3805;49.006;8.514;2022-08-19T15:46:03;5.00;;;4.70;;
7527;SDS011;3805;49.006;8.514;2022-08-19T15:48:51;5.20;;;4.70;;
7527;SDS011;3805;49.006;8.514;2022-08-19T15:51:48;6.10;;;5.60;;
7527;SDS011;3805;49.006;8.514;2022-08-19T15:54:37;5.13;;;4.83;;
7527;SDS011;3805;49.006;8.514;2022-08-19T15:57:27;5.67;;;5.37;;
7527;SDS011;3805;49.006;8.514;2022-08-19T16:00:33;6.10;;;5.60;;
7527;SDS011;3805;49.006;8.514;2022-08-19T16:03:39;5.93;;;5.43;;
7527;SDS011;3805;49.006;8.514;2022-08-19T16:06:50;4.90;;;4.60;;
7527;SDS011;3805;49.006;8.514;2022-08-19T16:09:39;5.00;;;4.73;;
7527;SDS011;3805;49.006;8.514;2022-08-19T16:12:28;6.30;;;5.73;;
7527;SDS011;3805;49.006;8.514;2022-08-19T16:15:16;5.73;;;5.33;;
7527;SDS011;3805;49.006;8.514;2022-08-19T16:18:06;5.40;;;4.40;;
7527;SDS011;3805;49.006;8.514;2022-08-19T16:20:55;9.77;;;8.97;;
7527;SDS011;3805;49.006;8.514;2022-08-19T16:23:46;7.83;;;7.33;;
7527;SDS011;3805;49.006;8.514;2022-08-19T16:26:35;6.13;;;5.73;;
7527;SDS011;3805;49.006;8.514;2022-08-19T16:29:24;5.50;;;5.10;;
7527;SDS011;3805;49.006;8.514;2022-08-19T16:32:25;5.00;;;4.63;;
7527;SDS011;3805;49.006;8.514;2022-08-19T16:35:13;4.87;;;4.53;;
7527;SDS011;3805;49.006;8.514;2022-08-19T16:38:02;5.27;;;4.87;;
7527;SDS011;3805;49.006;8.514;2022-08-19T16:40:54;10.30;;;4.80;;
7527;SDS011;3805;49.006;8.514;2022-08-19T16:43:43;5.00;;;4.70;;
7527;SDS011;3805;49.006;8.514;2022-08-19T16:46:31;5.40;;;5.07;;
7527;SDS011;3805;49.006;8.514;2022-08-19T16:49:20;5.10;;;4.80;;
7527;SDS011;3805;49.006;8.514;2022-08-19T16:52:31;5.67;;;5.37;;
7527;SDS011;3805;49.006;8.514;2022-08-19T16:55:21;4.73;;;4.43;;
7527;SDS011;3805;49.006;8.514;2022-08-19T16:58:11;4.33;;;4.07;;
7527;SDS011;3805;49.006;8.514;2022-08-19T17:01:00;4.73;;;4.43;;
7527;SDS011;3805;49.006;8.514;2022-08-19T17:03:50;4.40;;;4.10;;
7527;SDS011;3805;49.006;8.514;2022-08-19T17:06:39;5.50;;;5.10;;
7527;SDS011;3805;49.006;8.514;2022-08-19T17:09:27;5.30;;;4.80;;
7527;SDS011;3805;49.006;8.514;2022-08-19T17:12:18;5.10;;;4.70;;
7527;SDS011;3805;49.006;8.514;2022-08-19T17:15:08;5.27;;;4.97;;
7527;SDS011;3805;49.006;8.514;2022-08-19T17:17:58;5.50;;;5.00;;
7527;SDS011;3805;49.006;8.514;2022-08-19T17:20:47;5.33;;;4.83;;
7527;SDS011;3805;49.006;8.514;2022-08-19T17:23:41;5.10;;;4.80;;
7527;SDS011;3805;49.006;8.514;2022-08-19T17:26:30;5.60;;;5.10;;
7527;SDS011;3805;49.006;8.514;2022-08-19T17:29:19;5.10;;;4.70;;
7527;SDS011;3805;49.006;8.514;2022-08-19T17:32:09;5.00;;;4.70;;
7527;SDS011;3805;49.006;8.514;2022-08-19T17:34:58;6.33;;;5.10;;
7527;SDS011;3805;49.006;8.514;2022-08-19T17:37:46;7.77;;;7.13;;
7527;SDS011;3805;49.006;8.514;2022-08-19T17:40:36;6.97;;;6.37;;
7527;SDS011;3805;49.006;8.514;2022-08-19T17:43:26;13.30;;;12.20;;
7527;SDS011;3805;49.006;8.514;2022-08-19T17:46:20;7.30;;;6.80;;
7527;SDS011;3805;49.006;8.514;2022-08-19T17:49:10;6.00;;;5.60;;
7527;SDS011;3805;49.006;8.514;2022-08-19T17:51:59;5.57;;;5.20;;
7527;SDS011;3805;49.006;8.514;2022-08-19T17:54:48;5.70;;;5.20;;
7527;SDS011;3805;49.006;8.514;2022-08-19T17:57:37;11.73;;;6.70;;
7527;SDS011;3805;49.006;8.514;2022-08-19T18:00:32;11.67;;;8.83;;
7527;SDS011;3805;49.006;8.514;2022-08-19T18:03:22;19.87;;;8.87;;
7527;SDS011;3805;49.006;8.514;2022-08-19T18:06:14;11.33;;;10.03;;
7527;SDS011;3805;49.006;8.514;2022-08-19T18:09:03;10.93;;;9.10;;
7527;SDS011;3805;49.006;8.514;2022-08-19T18:11:53;9.83;;;8.93;;
7527;SDS011;3805;49.006;8.514;2022-08-19T18:14:43;12.53;;;9.73;;
7527;SDS011;3805;49.006;8.514;2022-08-19T18:17:32;16.33;;;10.87;;
7527;SDS011;3805;49.006;8.514;2022-08-19T18:20:22;10.83;;;9.83;;
7527;SDS011;3805;49.006;8.514;2022-08-19T18:23:12;11.87;;;10.70;;
7527;SDS011;3805;49.006;8.514;2022-08-19T18:26:21;10.23;;;9.33;;
7527;SDS011;3805;49.006;8.514;2022-08-19T18:29:10;11.10;;;9.67;;
7527;SDS011;3805;49.006;8.514;2022-08-19T18:31:59;11.13;;;9.97;;
7527;SDS011;3805;49.006;8.514;2022-08-19T18:34:48;10.60;;;9.60;;
7527;SDS011;3805;49.006;8.514;2022-08-19T18:37:36;14.10;;;10.90;;
7527;SDS011;3805;49.006;8.514;2022-08-19T18:40:27;10.40;;;9.50;;
7527;SDS011;3805;49.006;8.514;2022-08-19T18:43:34;11.00;;;10.10;;
7527;SDS011;3805;49.006;8.514;2022-08-19T18:46:43;10.20;;;9.40;;
7527;SDS011;3805;49.006;8.514;2022-08-19T18:49:49;11.40;;;10.50;;
7527;SDS011;3805;49.006;8.514;2022-08-19T18:52:38;12.00;;;11.00;;
7527;SDS011;3805;49.006;8.514;2022-08-19T18:55:28;10.90;;;9.87;;
7527;SDS011;3805;49.006;8.514;2022-08-19T18:58:17;10.90;;;10.00;;
7527;SDS011;3805;49.006;8.514;2022-08-19T19:01:10;10.20;;;9.37;;
7527;SDS011;3805;49.006;8.514;2022-08-19T19:04:02;10.97;;;9.90;;
7527;SDS011;3805;49.006;8.514;2022-08-19T19:06:52;11.40;;;10.30;;
7527;SDS011;3805;49.006;8.514;2022-08-19T19:09:41;11.90;;;10.70;;
7527;SDS011;3805;49.006;8.514;2022-08-19T19:12:31;12.20;;;11.00;;
7527;SDS011;3805;49.006;8.514;2022-08-19T19:15:23;12.60;;;11.60;;
7527;SDS011;3805;49.006;8.514;2022-08-19T19:18:11;11.23;;;10.23;;
7527;SDS011;3805;49.006;8.514;2022-08-19T19:21:00;11.30;;;10.40;;
7527;SDS011;3805;49.006;8.514;2022-08-19T19:23:49;11.70;;;10.70;;
7527;SDS011;3805;49.006;8.514;2022-08-19T19:26:38;11.50;;;10.30;;
7527;SDS011;3805;49.006;8.514;2022-08-19T19:29:28;10.90;;;10.00;;
7527;SDS011;3805;49.006;8.514;2022-08-19T19:32:18;11.70;;;10.60;;
7527;SDS011;3805;49.006;8.514;2022-08-19T19:35:07;11.27;;;10.30;;
7527;SDS011;3805;49.006;8.514;2022-08-19T19:37:57;11.40;;;10.40;;
7527;SDS011;3805;49.006;8.514;2022-08-19T19:40:45;10.20;;;9.20;;
7527;SDS011;3805;49.006;8.514;2022-08-19T19:43:34;11.30;;;10.47;;
7527;SDS011;3805;49.006;8.514;2022-08-19T19:46:28;11.10;;;10.10;;
7527;SDS011;3805;49.006;8.514;2022-08-19T19:49:18;10.57;;;9.67;;
7527;SDS011;3805;49.006;8.514;2022-08-19T19:52:07;9.73;;;9.03;;
7527;SDS011;3805;49.006;8.514;2022-08-19T19:55:00;10.60;;;9.70;;
7527;SDS011;3805;49.006;8.514;2022-08-19T19:57:48;10.07;;;9.00;;
7527;SDS011;3805;49.006;8.514;2022-08-19T20:00:39;10.13;;;9.13;;
7527;SDS011;3805;49.006;8.514;2022-08-19T20:03:29;9.70;;;8.80;;
7527;SDS011;3805;49.006;8.514;2022-08-19T20:06:18;15.90;;;14.20;;
7527;SDS011;3805;49.006;8.514;2022-08-19T20:09:06;9.33;;;8.43;;
7527;SDS011;3805;49.006;8.514;2022-08-19T20:11:56;9.70;;;8.80;;
7527;SDS011;3805;49.006;8.514;2022-08-19T20:14:45;9.03;;;8.23;;
7527;SDS011;3805;49.006;8.514;2022-08-19T20:17:33;8.10;;;7.50;;
7527;SDS011;3805;49.006;8.514;2022-08-19T20:20:29;6.50;;;6.00;;
7527;SDS011;3805;49.006;8.514;2022-08-19T20:23:20;6.60;;;6.10;;
7527;SDS011;3805;49.006;8.514;2022-08-19T20:26:09;4.63;;;4.33;;
7527;SDS011;3805;49.006;8.514;2022-08-19T20:29:18;5.30;;;5.00;;
7527;SDS011;3805;49.006;8.514;2022-08-19T20:32:25;4.70;;;4.30;;
7527;SDS011;3805;49.006;8.514;2022-08-19T20:35:16;5.13;;;4.73;;
7527;SDS011;3805;49.006;8.514;2022-08-19T20:38:08;4.97;;;4.50;;
7527;SDS011;3805;49.006;8.514;2022-08-19T20:40:56;5.70;;;4.53;;
7527;SDS011;3805;49.006;8.514;2022-08-19T20:43:45;4.17;;;3.87;;
7527;SDS011;3805;49.006;8.514;2022-08-19T20:46:34;4.43;;;4.13;;
7527;SDS011;3805;49.006;8.514;2022-08-19T20:49:23;3.80;;;3.60;;
7527;SDS011;3805;49.006;8.514;2022-08-19T20:52:13;4.63;;;3.77;;
7527;SDS011;3805;49.006;8.514;2022-08-19T20:55:04;4.47;;;4.17;;
7527;SDS011;3805;49.006;8.514;2022-08-19T20:57:53;3.13;;;2.93;;
7527;SDS011;3805;49.006;8.514;2022-08-19T21:00:43;5.27;;;3.07;;
7527;SDS011;3805;49.006;8.514;2022-08-19T21:03:33;3.37;;;3.10;;
7527;SDS011;3805;49.006;8.514;2022-08-19T21:06:29;4.53;;;4.13;;
7527;SDS011;3805;49.006;8.514;2022-08-19T21:09:18;3.30;;;3.00;;
7527;SDS011;3805;49.006;8.514;2022-08-19T21:12:10;6.50;;;5.90;;
7527;SDS011;3805;49.006;8.514;2022-08-19T21:14:59;3.27;;;2.93;;
7527;SDS011;3805;49.006;8.514;2022-08-19T21:17:48;3.23;;;3.00;;
7527;SDS011;3805;49.006;8.514;2022-08-19T21:20:38;2.50;;;2.27;;
7527;SDS011;3805;49.006;8.514;2022-08-19T21:23:27;3.83;;;2.63;;
7527;SDS011;3805;49.006;8.514;2022-08-19T21:26:17;2.70;;;2.50;;
7527;SDS011;3805;49.006;8.514;2022-08-19T21:29:07;2.50;;;2.30;;
7527;SDS011;3805;49.006;8.514;2022-08-19T21:31:55;4.00;;;2.07;;
7527;SDS011;3805;49.006;8.514;2022-08-19T21:34:44;2.87;;;2.40;;
7527;SDS011;3805;49.006;8.514;2022-08-19T21:37:33;4.07;;;2.23;;
7527;SDS011;3805;49.006;8.514;2022-08-19T21:40:22;2.97;;;2.77;;
7527;SDS011;3805;49.006;8.514;2022-08-19T21:43:11;3.40;;;3.10;;
7527;SDS011;3805;49.006;8.514;2022-08-19T21:46:01;3.00;;;2.43;;
7527;SDS011;3805;49.006;8.514;2022-08-19T21:48:50;2.73;;;2.53;;
7527;SDS011;3805;49.006;8.514;2022-08-19T21:51:38;2.30;;;2.20;;
7527;SDS011;3805;49.006;8.514;2022-08-19T21:54:28;1.90;;;1.80;;
7527;SDS011;3805;49.006;8.514;2022-08-19T21:57:24;2.53;;;2.33;;
7527;SDS011;3805;49.006;8.514;2022-08-19T22:00:14;3.77;;;2.17;;
7527;SDS011;3805;49.006;8.514;2022-08-19T22:03:06;4.80;;;2.20;;
7527;SDS011;3805;49.006;8.514;2022-08-19T22:05:54;2.83;;;2.13;;
7527;SDS011;3805;49.006;8.514;2022-08-19T22:08:44;3.40;;;2.20;;
7527;SDS011;3805;49.006;8.514;2022-08-19T22:11:33;3.33;;;1.80;;
7527;SDS011;3805;49.006;8.514;2022-08-19T22:14:22;2.27;;;1.80;;
7527;SDS011;3805;49.006;8.514;2022-08-19T22:17:10;2.50;;;1.83;;
7527;SDS011;3805;49.006;8.514;2022-08-19T22:20:02;3.80;;;3.50;;
7527;SDS011;3805;49.006;8.514;2022-08-19T22:22:53;2.40;;;2.20;;
7527;SDS011;3805;49.006;8.514;2022-08-19T22:25:44;2.10;;;2.00;;
7527;SDS011;3805;49.006;8.514;2022-08-19T22:28:33;1.67;;;1.57;;
7527;SDS011;3805;49.006;8.514;2022-08-19T22:31:22;1.80;;;1.70;;
7527;SDS011;3805;49.006;8.514;2022-08-19T22:34:10;1.70;;;1.60;;
7527;SDS011;3805;49.006;8.514;2022-08-19T22:37:00;2.97;;;2.10;;
7527;SDS011;3805;49.006;8.514;2022-08-19T22:39:49;2.10;;;1.67;;
7527;SDS011;3805;49.006;8.514;2022-08-19T22:42:38;2.70;;;2.50;;
7527;SDS011;3805;49.006;8.514;2022-08-19T22:45:27;2.40;;;2.20;;
7527;SDS011;3805;49.006;8.514;2022-08-19T22:48:17;2.10;;;2.00;;
7527;SDS011;3805;49.006;8.514;2022-08-19T22:51:06;1.70;;;1.60;;